Time;durP1;ratioP1;P1;durP2;ratioP2;P2;SDS_P1;SDS_P2;PMS_P1;PMS_P2;Temp;Humidity;BMP_temperature;BMP_pressure;BME280_temperature;BME280_humidity;BME280_pressure;Samples;Min_cycle;Max_cycle;Signal;HPM_P1;HPM_P2
2021/09/25 00:01:08;;;;;;;9.85;6.15;;;;;;;15.91;82.86;100350.06;4908416;29;20091;-83
2021/09/25 00:03:35;;;;;;;9.40;6.45;;;;;;;16.07;82.06;100350.66;4915756;29;20082;-82
2021/09/25 00:06:02;;;;;;;11.30;7.43;;;;;;;16.17;81.25;100345.56;4918706;29;20054;-83
2021/09/25 00:08:29;;;;;;;7.45;5.82;;;;;;;16.07;82.09;100340.13;4912286;29;20041;-82
2021/09/25 00:10:56;;;;;;;7.32;5.20;;;;;;;16.10;81.93;100357.50;4900786;29;20455;-83
2021/09/25 00:13:24;;;;;;;8.57;5.80;;;;;;;16.15;81.75;100353.59;4915930;29;20479;-82
2021/09/25 00:15:50;;;;;;;7.95;5.53;;;;;;;16.22;81.35;100352.19;4918981;29;20092;-83
2021/09/25 00:18:17;;;;;;;7.53;6.78;;;;;;;16.28;80.93;100352.69;4918733;29;20055;-83
2021/09/25 00:20:44;;;;;;;12.13;10.18;;;;;;;16.32;80.84;100354.16;4919017;28;20044;-83
2021/09/25 00:23:11;;;;;;;20.65;10.05;;;;;;;16.37;80.32;100344.16;4918353;29;20043;-83
2021/09/25 00:25:37;;;;;;;9.98;7.45;;;;;;;16.38;80.54;100353.72;4918218;29;20068;-83
2021/09/25 00:28:04;;;;;;;4.85;4.45;;;;;;;16.48;80.52;100360.00;4918569;29;20052;-83
2021/09/25 00:30:31;;;;;;;7.25;5.68;;;;;;;16.49;80.37;100351.97;4918207;29;20086;-83
2021/09/25 00:32:58;;;;;;;6.88;5.20;;;;;;;16.59;80.04;100367.09;4918073;29;20101;-82
2021/09/25 00:35:25;;;;;;;13.20;4.50;;;;;;;16.68;79.59;100356.75;4912915;29;20045;-83
2021/09/25 00:37:51;;;;;;;5.30;4.65;;;;;;;16.88;78.68;100351.81;4902380;29;20048;-83
2021/09/25 00:40:18;;;;;;;4.80;4.18;;;;;;;16.76;78.81;100354.41;4915734;29;20044;-82
2021/09/25 00:42:46;;;;;;;6.45;5.35;;;;;;;16.65;79.50;100358.75;4923728;29;20107;-84
2021/09/25 00:45:13;;;;;;;6.55;5.82;;;;;;;16.48;80.25;100360.81;4920121;29;20044;-83
2021/09/25 00:47:40;;;;;;;8.38;6.57;;;;;;;16.42;80.65;100357.81;4918003;29;20052;-82
2021/09/25 00:50:07;;;;;;;13.07;8.57;;;;;;;16.40;80.71;100368.41;4918454;29;20041;-82
2021/09/25 00:52:34;;;;;;;11.02;7.82;;;;;;;16.40;81.01;100367.56;4918026;29;20115;-83
2021/09/25 00:55:02;;;;;;;11.43;8.70;;;;;;;16.47;80.70;100366.22;4917832;29;20486;-82
2021/09/25 00:57:29;;;;;;;11.73;7.50;;;;;;;16.40;81.32;100367.56;4917640;29;20052;-82
2021/09/25 00:59:56;;;;;;;11.45;6.75;;;;;;;16.26;82.21;100365.13;4918082;29;20048;-82
2021/09/25 01:02:24;;;;;;;11.48;9.63;;;;;;;16.33;81.50;100366.34;4917475;29;20115;-82
2021/09/25 01:04:51;;;;;;;22.35;15.50;;;;;;;16.39;80.96;100365.91;4917605;29;20103;-83
2021/09/25 01:07:18;;;;;;;24.40;18.73;;;;;;;16.41;80.20;100364.03;4917433;29;20047;-82
2021/09/25 01:09:46;;;;;;;27.08;19.80;;;;;;;16.46;79.98;100364.53;4917331;29;20412;-82
2021/09/25 01:12:13;;;;;;;23.27;19.83;;;;;;;16.49;79.45;100362.50;4916284;29;20092;-82
2021/09/25 01:14:39;;;;;;;21.45;15.25;;;;;;;16.38;79.94;100364.22;4916816;29;20538;-82
2021/09/25 01:17:10;;;;;;;18.92;15.43;;;;;;;16.38;80.37;100364.22;4917390;29;20048;-82
2021/09/25 01:19:37;;;;;;;23.85;17.00;;;;;;;16.39;80.45;100360.66;4917491;29;20044;-82
2021/09/25 01:22:04;;;;;;;23.98;15.05;;;;;;;16.40;79.82;100364.94;4917065;29;20047;-82
2021/09/25 01:24:33;;;;;;;14.50;11.68;;;;;;;16.21;81.68;100363.66;4917518;29;20108;-83
2021/09/25 01:27:00;;;;;;;17.38;12.48;;;;;;;16.21;81.94;100363.66;4917186;29;20056;-84
2021/09/25 01:29:28;;;;;;;14.20;12.73;;;;;;;16.19;81.92;100354.19;4917426;29;20040;-81
2021/09/25 01:31:55;;;;;;;12.60;11.20;;;;;;;16.19;82.28;100360.31;4917411;29;20083;-81
2021/09/25 01:34:22;;;;;;;12.40;8.77;;;;;;;16.07;82.71;100363.78;4916809;29;20091;-82
2021/09/25 01:36:49;;;;;;;11.73;7.78;;;;;;;16.00;83.60;100365.19;4917396;29;20052;-82
2021/09/25 01:39:17;;;;;;;9.48;7.78;;;;;;;16.05;83.33;100357.81;4917286;29;20044;-82
2021/09/25 01:41:44;;;;;;;11.15;6.75;;;;;;;15.98;83.82;100370.56;4917002;29;20052;-83
2021/09/25 01:44:11;;;;;;;9.13;6.22;;;;;;;15.99;83.80;100366.13;4915344;29;20107;-82
2021/09/25 01:46:38;;;;;;;12.40;6.53;;;;;;;15.97;84.15;100360.97;4915833;29;20115;-83
2021/09/25 01:49:05;;;;;;;11.27;7.10;;;;;;;15.95;84.28;100362.03;4917569;29;20052;-82
2021/09/25 01:51:32;;;;;;;11.23;6.70;;;;;;;15.95;84.58;100364.66;4916504;29;20048;-82
2021/09/25 01:53:59;;;;;;;7.65;6.88;;;;;;;15.85;85.01;100364.47;4916885;29;20044;-82
2021/09/25 01:56:26;;;;;;;8.23;7.18;;;;;;;15.91;84.62;100361.41;4915323;29;20100;-82
2021/09/25 01:58:52;;;;;;;8.30;6.60;;;;;;;15.89;84.70;100362.47;4916844;29;20040;-82
2021/09/25 02:01:19;;;;;;;12.75;9.50;;;;;;;15.87;85.02;100364.34;4916452;29;20044;-82
2021/09/25 02:03:46;;;;;;;11.05;8.90;;;;;;;15.82;85.30;100361.19;4916900;29;20059;-82
2021/09/25 02:06:14;;;;;;;9.65;8.50;;;;;;;15.77;85.27;100369.44;4915058;29;20050;-83
2021/09/25 02:08:42;;;;;;;11.02;7.78;;;;;;;15.66;85.98;100358.84;4909550;29;20167;-80
2021/09/25 02:11:09;;;;;;;8.43;7.63;;;;;;;15.65;86.17;100365.84;4897703;29;20049;-82
2021/09/25 02:13:36;;;;;;;11.07;7.85;;;;;;;15.64;86.02;100369.44;4906061;29;20044;-81
2021/09/25 02:16:03;;;;;;;20.67;12.75;;;;;;;15.57;86.37;100362.88;4909156;29;20114;-82
2021/09/25 02:18:30;;;;;;;15.32;13.20;;;;;;;15.49;86.98;100367.81;4916338;29;20111;-81
2021/09/25 02:21:00;;;;;;;14.45;10.07;;;;;;;15.40;88.21;100366.69;4915314;29;20044;-82
2021/09/25 02:23:27;;;;;;;11.73;9.40;;;;;;;15.38;87.83;100367.72;4916082;29;20045;-82
2021/09/25 02:25:54;;;;;;;11.73;9.07;;;;;;;15.34;88.31;100364.47;4916360;29;20044;-82
2021/09/25 02:28:22;;;;;;;12.70;10.43;;;;;;;15.29;88.46;100366.56;4916117;29;20048;-82
2021/09/25 02:30:49;;;;;;;10.63;9.02;;;;;;;15.27;88.74;100367.59;4916897;29;20100;-82
2021/09/25 02:33:16;;;;;;;11.00;9.10;;;;;;;15.27;89.20;100375.47;4916326;29;20077;-82
2021/09/25 02:35:42;;;;;;;8.75;7.07;;;;;;;15.10;90.55;100363.47;4916318;29;20116;-83
2021/09/25 02:38:10;;;;;;;10.25;6.97;;;;;;;15.16;90.21;100371.78;4916483;29;20040;-82
2021/09/25 02:40:38;;;;;;;10.95;6.72;;;;;;;15.19;90.06;100368.13;4905019;29;20146;-83
2021/09/25 02:43:06;;;;;;;11.77;6.10;;;;;;;15.16;90.13;100358.66;4897677;29;20064;-82
2021/09/25 02:45:33;;;;;;;9.13;7.55;;;;;;;15.10;90.79;100363.47;4897229;29;20040;-82
2021/09/25 02:48:01;;;;;;;9.88;7.35;;;;;;;15.10;90.58;100366.94;4913420;29;20499;-82
2021/09/25 02:50:27;;;;;;;7.40;6.55;;;;;;;15.07;90.85;100353.19;4914521;29;20048;-83
2021/09/25 02:52:54;;;;;;;19.35;11.15;;;;;;;15.15;90.14;100362.22;4916420;28;20048;-82
2021/09/25 02:55:21;;;;;;;11.07;8.55;;;;;;;15.12;90.16;100351.09;4915824;29;20491;-82
2021/09/25 02:57:48;;;;;;;12.80;9.25;;;;;;;15.11;90.39;100355.50;4917338;29;20067;-82
2021/09/25 03:00:18;;;;;;;13.52;8.20;;;;;;;15.07;90.97;100356.63;4919484;29;20052;-79
2021/09/25 03:02:45;;;;;;;9.30;7.65;;;;;;;15.03;90.85;100349.09;4920233;29;20379;-83
2021/09/25 03:05:13;;;;;;;8.20;7.25;;;;;;;14.92;91.31;100355.06;4919777;29;20079;-82
2021/09/25 03:07:40;;;;;;;8.25;5.47;;;;;;;14.86;91.72;100343.19;4932942;29;20048;-82
2021/09/25 03:10:08;;;;;;;9.10;5.53;;;;;;;14.82;92.00;100356.59;4900891;29;20514;-80
2021/09/25 03:12:35;;;;;;;8.93;6.53;;;;;;;14.78;92.23;100355.13;4900594;29;20100;-81
2021/09/25 03:15:04;;;;;;;12.65;7.20;;;;;;;14.79;92.39;100354.16;4908752;29;20052;-82
2021/09/25 03:17:31;;;;;;;9.93;7.80;;;;;;;14.76;92.81;100355.22;4919478;29;20047;-82
2021/09/25 03:19:58;;;;;;;9.30;7.47;;;;;;;14.74;93.06;100356.25;4919557;29;20055;-82
2021/09/25 03:22:25;;;;;;;8.88;6.57;;;;;;;14.77;92.95;100350.81;4919652;29;20095;-82
2021/09/25 03:24:52;;;;;;;7.90;6.53;;;;;;;14.70;93.63;100362.63;4919052;29;20063;-83
2021/09/25 03:27:19;;;;;;;9.25;6.93;;;;;;;14.70;93.02;100360.00;4918992;29;20107;-82
2021/09/25 03:29:46;;;;;;;11.13;6.65;;;;;;;14.67;92.94;100361.06;4919642;29;20047;-84
2021/09/25 03:32:13;;;;;;;12.85;7.22;;;;;;;14.53;93.68;100359.31;4923915;29;20048;-82
2021/09/25 03:34:40;;;;;;;11.30;7.53;;;;;;;14.66;93.05;100360.22;4921798;29;20103;-82
2021/09/25 03:37:06;;;;;;;12.35;8.70;;;;;;;14.67;92.85;100372.41;4919858;29;20076;-82
2021/09/25 03:39:34;;;;;;;11.10;8.68;;;;;;;14.61;93.52;100375.44;4919126;29;20048;-82
2021/09/25 03:42:00;;;;;;;9.57;8.38;;;;;;;14.52;94.15;100368.16;4919255;29;20044;-83
2021/09/25 03:44:27;;;;;;;10.82;9.70;;;;;;;14.59;93.57;100369.41;4919100;29;20086;-82
2021/09/25 03:46:55;;;;;;;13.05;11.48;;;;;;;14.61;93.04;100361.47;4919254;29;20494;-81
2021/09/25 03:49:22;;;;;;;12.32;9.45;;;;;;;14.58;93.05;100367.75;4918674;29;20048;-82
2021/09/25 03:51:48;;;;;;;16.20;9.43;;;;;;;14.47;94.34;100371.97;4919166;29;20859;-82
2021/09/25 03:54:15;;;;;;;18.38;9.40;;;;;;;14.48;94.55;100381.56;4919015;29;20052;-82
2021/09/25 03:56:42;;;;;;;12.85;10.80;;;;;;;14.54;93.69;100374.16;4919070;29;20067;-82
2021/09/25 03:59:10;;;;;;;16.67;8.85;;;;;;;14.45;93.98;100379.09;4918162;29;20048;-82
2021/09/25 04:01:37;;;;;;;12.75;10.98;;;;;;;14.37;94.65;100371.72;4918801;29;20478;-83
2021/09/25 04:04:04;;;;;;;13.02;10.65;;;;;;;14.38;94.51;100369.00;4917661;29;20058;-83
2021/09/25 04:06:31;;;;;;;15.77;11.55;;;;;;;14.42;94.80;100377.50;4933005;29;20059;-82
2021/09/25 04:08:59;;;;;;;14.57;10.55;;;;;;;14.46;95.09;100378.16;4917512;29;20487;-82
2021/09/25 04:11:26;;;;;;;13.68;9.65;;;;;;;14.52;94.54;100376.00;4918678;29;20115;-82
2021/09/25 04:13:53;;;;;;;25.08;12.95;;;;;;;14.35;95.25;100376.22;4918734;29;20044;-82
2021/09/25 04:16:20;;;;;;;15.45;10.77;;;;;;;14.49;94.71;100373.59;4918395;29;20052;-82
2021/09/25 04:18:47;;;;;;;16.15;11.57;;;;;;;14.42;94.96;100372.25;4918317;29;20076;-83
2021/09/25 04:21:15;;;;;;;16.98;11.63;;;;;;;14.38;95.02;100370.75;4918122;29;20055;-82
2021/09/25 04:23:44;;;;;;;20.48;12.73;;;;;;;14.36;95.76;100377.91;4918380;29;20044;-82
2021/09/25 04:26:10;;;;;;;20.08;14.50;;;;;;;14.36;95.46;100375.28;4907340;29;20044;-82
2021/09/25 04:28:37;;;;;;;20.35;13.13;;;;;;;14.37;95.56;100385.66;4918307;29;20048;-82
2021/09/25 04:31:04;;;;;;;21.08;13.35;;;;;;;14.37;95.24;100393.53;4918154;29;20095;-82
2021/09/25 04:33:31;;;;;;;18.13;13.57;;;;;;;14.31;95.37;100395.69;4918352;29;20052;-82
2021/09/25 04:35:58;;;;;;;17.77;13.40;;;;;;;14.34;95.18;100395.53;4918413;29;20103;-82
2021/09/25 04:38:25;;;;;;;16.98;13.73;;;;;;;14.32;95.16;100387.72;4914037;29;20040;-82
2021/09/25 04:40:52;;;;;;;16.38;11.85;;;;;;;14.29;95.32;100392.34;4900444;29;20055;-83
2021/09/25 04:43:20;;;;;;;19.13;12.93;;;;;;;14.28;95.19;100394.13;4905780;29;20047;-82
2021/09/25 04:45:47;;;;;;;18.85;12.60;;;;;;;14.31;95.04;100401.78;4917446;29;20486;-82
2021/09/25 04:48:14;;;;;;;20.15;11.48;;;;;;;14.22;96.19;100401.50;4909999;29;20068;-82
2021/09/25 04:50:40;;;;;;;18.65;12.15;;;;;;;14.28;95.89;100406.41;4917242;29;20058;-82
2021/09/25 04:53:09;;;;;;;17.90;11.07;;;;;;;14.23;96.05;100396.19;4917040;28;20044;-83
2021/09/25 04:55:37;;;;;;;21.95;12.48;;;;;;;14.29;96.04;100406.28;4916502;29;20466;-82
2021/09/25 04:58:07;;;;;;;16.15;11.75;;;;;;;14.40;95.50;100410.88;4915881;29;20048;-81
2021/09/25 05:00:34;;;;;;;16.15;12.27;;;;;;;14.44;95.04;100407.13;4916791;29;20105;-80
2021/09/25 05:03:01;;;;;;;17.20;12.13;;;;;;;14.44;95.23;100404.50;4916860;29;20459;-81
2021/09/25 05:05:30;;;;;;;16.15;13.43;;;;;;;14.56;94.46;100408.97;4916564;29;20052;-80
2021/09/25 05:07:57;;;;;;;21.83;13.43;;;;;;;14.60;94.15;100412.25;4916746;29;20044;-81
2021/09/25 05:10:24;;;;;;;23.65;13.18;;;;;;;14.72;93.44;100421.13;4915099;29;20067;-79
2021/09/25 05:12:51;;;;;;;14.32;10.82;;;;;;;14.69;93.11;100416.91;4915102;29;20060;-79
2021/09/25 05:15:18;;;;;;;16.92;11.80;;;;;;;14.61;93.63;100416.56;4915846;29;20494;-85
2021/09/25 05:17:45;;;;;;;18.48;11.05;;;;;;;14.70;93.35;100422.97;4916680;29;20126;-81
2021/09/25 05:20:12;;;;;;;19.50;12.25;;;;;;;14.79;92.57;100427.66;4916796;29;20406;-81
2021/09/25 05:22:39;;;;;;;17.02;11.65;;;;;;;14.79;92.59;100433.75;4916840;29;20114;-80
2021/09/25 05:25:06;;;;;;;15.48;13.02;;;;;;;14.83;92.74;100429.13;4917152;29;20048;-83
2021/09/25 05:27:33;;;;;;;15.25;11.55;;;;;;;14.99;91.32;100429.81;4915923;29;20609;-80
2021/09/25 05:30:00;;;;;;;17.70;12.35;;;;;;;14.97;91.25;100436.97;4917459;29;20410;-80
2021/09/25 05:32:27;;;;;;;17.35;12.43;;;;;;;15.08;90.92;100439.72;4916873;29;20048;-80
2021/09/25 05:34:55;;;;;;;16.70;12.40;;;;;;;15.22;90.10;100430.94;4917095;29;20397;-83
2021/09/25 05:37:22;;;;;;;25.15;14.98;;;;;;;15.42;88.97;100434.88;4917107;29;20134;-81
2021/09/25 05:39:54;;;;;;;22.45;15.63;;;;;;;15.38;89.14;100430.75;4917652;29;20084;-81
2021/09/25 05:42:25;;;;;;;21.45;13.20;;;;;;;15.48;88.85;100434.44;4907611;29;20056;-81
2021/09/25 05:44:54;;;;;;;18.58;13.75;;;;;;;15.56;88.65;100434.78;4917057;29;20454;-81
2021/09/25 05:47:21;;;;;;;20.08;14.02;;;;;;;15.58;88.77;100432.88;4916911;29;20050;-82
2021/09/25 05:49:48;;;;;;;19.52;13.52;;;;;;;15.57;88.81;100425.94;4916709;29;20044;-81
2021/09/25 05:52:16;;;;;;;23.92;15.65;;;;;;;15.66;88.79;100422.72;4916613;29;20131;-82
2021/09/25 05:54:44;;;;;;;22.15;15.93;;;;;;;15.75;88.56;100434.38;4916780;29;20048;-81
2021/09/25 05:57:11;;;;;;;21.17;15.75;;;;;;;15.82;88.41;100429.53;4915813;29;20052;-83
2021/09/25 05:59:38;;;;;;;27.23;16.60;;;;;;;16.07;87.24;100433.94;4916351;29;20044;-81
2021/09/25 06:02:05;;;;;;;24.50;17.77;;;;;;;16.32;85.90;100438.34;4916973;29;20091;-82
2021/09/25 06:04:33;;;;;;;24.95;16.35;;;;;;;16.44;84.96;100447.97;4916534;29;20174;-81
2021/09/25 06:07:00;;;;;;;29.30;17.75;;;;;;;16.50;84.75;100452.81;4916493;29;20519;-82
2021/09/25 06:09:27;;;;;;;21.90;15.95;;;;;;;16.51;85.40;100459.75;4916829;29;20052;-82
2021/09/25 06:11:54;;;;;;;21.42;14.45;;;;;;;16.59;85.46;100457.41;4916783;29;20044;-81
2021/09/25 06:14:21;;;;;;;23.27;14.95;;;;;;;16.74;84.44;100461.63;4916146;29;20055;-81
2021/09/25 06:16:49;;;;;;;24.70;16.13;;;;;;;16.93;83.52;100470.78;4916705;29;20055;-82
2021/09/25 06:19:16;;;;;;;28.58;19.15;;;;;;;17.13;82.39;100467.53;4916491;29;20103;-80
2021/09/25 06:21:43;;;;;;;23.75;18.17;;;;;;;17.27;81.95;100474.44;4920909;29;20166;-81
2021/09/25 06:24:10;;;;;;;22.45;16.92;;;;;;;17.33;82.06;100466.06;4920052;29;20048;-80
2021/09/25 06:26:37;;;;;;;25.80;17.95;;;;;;;17.45;81.41;100461.69;4916923;29;20076;-80
2021/09/25 06:29:05;;;;;;;22.23;15.80;;;;;;;17.54;81.34;100468.91;4916449;29;20542;-80
2021/09/25 06:31:32;;;;;;;24.15;16.35;;;;;;;17.69;80.28;100472.19;4917846;29;20479;-80
2021/09/25 06:33:59;;;;;;;23.35;18.08;;;;;;;17.82;79.78;100474.75;4920101;29;20110;-81
2021/09/25 06:36:28;;;;;;;22.02;15.18;;;;;;;17.88;79.38;100479.53;4914066;29;20052;-82
2021/09/25 06:38:55;;;;;;;32.13;16.67;;;;;;;17.94;79.28;100490.44;4923178;29;20044;-81
2021/09/25 06:41:23;;;;;;;27.08;20.55;;;;;;;18.10;77.99;100490.09;4921957;28;20044;-81
2021/09/25 06:43:50;;;;;;;24.40;19.15;;;;;;;18.13;77.53;100489.03;4923171;29;20452;-80
2021/09/25 06:46:16;;;;;;;30.45;20.10;;;;;;;18.28;77.98;100495.75;4918790;29;20404;-80
2021/09/25 06:48:44;;;;;;;27.48;19.80;;;;;;;18.33;77.60;100488.34;4922616;29;20490;-81
2021/09/25 06:51:11;;;;;;;25.50;19.90;;;;;;;18.48;76.56;100480.97;4920917;29;20084;-79
2021/09/25 06:53:38;;;;;;;19.70;16.35;;;;;;;18.43;76.96;100484.00;4922840;29;20048;-81
2021/09/25 06:56:07;;;;;;;20.60;16.15;;;;;;;18.57;76.07;100483.72;4921396;29;20095;-81
2021/09/25 06:58:34;;;;;;;28.13;21.88;;;;;;;18.65;75.65;100482.31;4922339;29;20048;-81
2021/09/25 07:01:00;;;;;;;33.22;21.60;;;;;;;18.68;75.00;100490.84;4922373;29;20051;-80
2021/09/25 07:03:30;;;;;;;26.98;20.73;;;;;;;18.69;75.38;100496.94;4922472;29;20052;-80
2021/09/25 07:05:59;;;;;;;25.58;19.30;;;;;;;19.00;73.98;100496.16;4922759;29;20063;-82
2021/09/25 07:08:25;;;;;;;23.33;17.73;;;;;;;19.11;73.33;100493.47;4922218;29;20092;-81
2021/09/25 07:10:52;;;;;;;24.48;17.05;;;;;;;19.20;72.47;100478.69;4922793;29;20103;-81
2021/09/25 07:13:19;;;;;;;22.77;16.58;;;;;;;19.29;72.46;100477.94;4922335;29;20044;-81
2021/09/25 07:15:46;;;;;;;20.58;16.33;;;;;;;19.15;73.38;100483.50;4922699;29;20059;-81
2021/09/25 07:18:12;;;;;;;19.02;16.88;;;;;;;19.37;72.21;100480.75;4922486;29;20036;-81
2021/09/25 07:20:40;;;;;;;29.70;23.92;;;;;;;19.44;69.97;100474.97;4922895;29;20047;-80
2021/09/25 07:23:07;;;;;;;28.08;23.35;;;;;;;19.46;71.02;100487.09;4946467;23;20074;-80
2021/09/25 07:25:36;;;;;;;29.48;23.10;;;;;;;19.54;69.44;100486.44;4942721;29;20047;-81
2021/09/25 07:28:09;;;;;;;33.00;29.42;;;;;;;19.22;70.51;100495.25;4942612;29;20055;-83
2021/09/25 07:30:37;;;;;;;32.53;28.52;;;;;;;19.53;70.13;100490.91;4943267;29;20043;-81
2021/09/25 07:33:07;;;;;;;34.53;27.40;;;;;;;19.73;69.51;100486.63;4942272;29;20425;-81
2021/09/25 07:35:36;;;;;;;34.53;27.17;;;;;;;19.79;68.54;100487.91;4943328;29;20154;-82
2021/09/25 07:38:05;;;;;;;34.75;26.95;;;;;;;19.66;68.53;100488.13;4943822;29;20072;-82
2021/09/25 07:40:33;;;;;;;35.00;22.77;;;;;;;20.04;67.78;100492.78;4944081;29;20055;-83
2021/09/25 07:43:01;;;;;;;29.13;21.23;;;;;;;19.85;68.00;100493.50;4943349;29;20044;-83
2021/09/25 07:45:29;;;;;;;23.02;19.75;;;;;;;20.34;66.67;100488.44;4940416;29;20048;-84
2021/09/25 07:47:56;;;;;;;31.05;19.42;;;;;;;20.26;65.88;100485.66;4940597;29;20071;-83
2021/09/25 07:50:24;;;;;;;28.35;20.35;;;;;;;20.02;67.13;100491.22;4940174;29;20561;-81
2021/09/25 07:52:55;;;;;;;26.63;20.92;;;;;;;20.47;65.73;100490.91;4939039;29;20114;-81
2021/09/25 07:55:24;;;;;;;27.58;20.55;;;;;;;20.47;65.78;100488.28;4938826;29;20059;-81
2021/09/25 07:57:51;;;;;;;21.27;18.40;;;;;;;20.37;65.93;100499.63;4938852;29;20047;-81
2021/09/25 08:00:18;;;;;;;22.83;18.73;;;;;;;20.40;65.56;100503.81;4940345;29;20091;-81
2021/09/25 08:02:45;;;;;;;27.40;18.33;;;;;;;20.56;65.40;100505.97;4938799;29;20047;-81
2021/09/25 08:05:13;;;;;;;23.50;18.23;;;;;;;20.63;65.01;100504.50;4932621;29;20052;-81
2021/09/25 08:07:40;;;;;;;20.33;16.88;;;;;;;20.95;63.35;100519.34;4918871;29;20440;-80
2021/09/25 08:10:08;;;;;;;20.80;16.63;;;;;;;20.99;62.86;100520.75;4925074;29;20495;-82
2021/09/25 08:12:36;;;;;;;20.65;17.00;;;;;;;20.67;63.71;100525.28;4919868;29;20048;-82
2021/09/25 08:15:05;;;;;;;19.70;15.05;;;;;;;20.73;64.01;100521.25;4919245;29;20083;-82
2021/09/25 08:17:32;;;;;;;23.15;16.88;;;;;;;20.56;64.17;100517.44;4919663;29;20146;-82
2021/09/25 08:19:59;;;;;;;19.20;15.63;;;;;;;21.02;62.68;100520.47;4920257;29;20044;-82
2021/09/25 08:22:26;;;;;;;25.20;20.02;;;;;;;20.90;64.80;100517.94;4920728;29;20056;-83
2021/09/25 08:24:53;;;;;;;27.75;19.58;;;;;;;20.64;65.81;100528.19;4920341;29;20469;-82
2021/09/25 08:27:20;;;;;;;22.15;19.67;;;;;;;21.04;64.21;100529.97;4922049;29;20107;-82
2021/09/25 08:29:46;;;;;;;22.90;17.73;;;;;;;20.72;65.20;100537.25;4919508;29;20048;-81
2021/09/25 08:32:13;;;;;;;19.65;17.23;;;;;;;20.96;64.57;100531.59;4919780;29;20530;-81
2021/09/25 08:34:40;;;;;;;19.67;16.15;;;;;;;20.66;65.92;100539.47;4918973;29;20052;-82
2021/09/25 08:37:07;;;;;;;18.27;15.68;;;;;;;20.61;66.21;100538.19;4919033;29;20135;-81
2021/09/25 08:39:34;;;;;;;20.95;16.17;;;;;;;20.71;65.97;100541.72;4918470;29;20068;-82
2021/09/25 08:42:01;;;;;;;16.92;13.23;;;;;;;21.06;64.82;100548.38;4918976;29;20040;-83
2021/09/25 08:44:28;;;;;;;12.32;11.07;;;;;;;21.31;63.34;100539.94;4917272;29;20047;-82
2021/09/25 08:46:55;;;;;;;16.48;14.15;;;;;;;21.18;64.06;100542.78;4911751;29;20040;-82
2021/09/25 08:49:23;;;;;;;19.20;17.30;;;;;;;21.02;64.47;100549.63;4910925;29;20083;-82
2021/09/25 08:51:49;;;;;;;17.52;15.30;;;;;;;21.26;63.51;100551.91;4917289;29;20048;-82
2021/09/25 08:54:22;;;;;;;14.85;13.32;;;;;;;21.78;61.88;100539.19;4916924;29;20448;-82
2021/09/25 08:56:48;;;;;;;18.55;14.07;;;;;;;21.71;62.25;100539.75;4917966;29;20048;-81
2021/09/25 08:59:15;;;;;;;17.65;14.13;;;;;;;21.76;61.88;100539.34;4918537;29;20095;-81
2021/09/25 09:01:43;;;;;;;15.98;14.32;;;;;;;21.57;62.52;100532.25;4918020;29;20060;-80
2021/09/25 09:04:12;;;;;;;15.15;13.65;;;;;;;21.44;62.83;100542.28;4918202;29;20135;-80
2021/09/25 09:06:39;;;;;;;22.35;13.32;;;;;;;21.65;61.53;100539.50;4917255;29;20119;-82
2021/09/25 09:09:08;;;;;;;18.13;14.80;;;;;;;21.61;61.98;100548.72;4917949;29;20051;-82
2021/09/25 09:11:48;;;;;;;18.05;15.50;;;;;;;21.67;61.36;100542.84;4910919;29;20044;-83
2021/09/25 09:14:17;;;;;;;16.73;15.18;;;;;;;22.25;60.07;100541.91;4918673;29;20052;-81
2021/09/25 09:16:57;;;;;;;19.10;15.40;;;;;;;21.92;61.23;100528.97;4917858;29;20407;-81
2021/09/25 09:19:24;;;;;;;18.50;15.07;;;;;;;22.11;60.64;100536.09;4916504;29;20447;-80
2021/09/25 09:21:51;;;;;;;17.35;14.65;;;;;;;22.06;60.88;100537.50;4917149;29;20127;-82
2021/09/25 09:24:19;;;;;;;22.27;13.82;;;;;;;21.93;61.22;100530.66;4917704;29;20062;-81
2021/09/25 09:26:46;;;;;;;31.58;15.73;;;;;;;21.77;62.81;100541.00;4918767;29;20048;-82
2021/09/25 09:29:16;;;;;;;18.50;15.10;;;;;;;21.85;61.75;100545.63;4918565;29;20075;-82
2021/09/25 09:31:43;;;;;;;18.45;14.50;;;;;;;22.25;60.53;100532.13;4929745;29;20040;-81
2021/09/25 09:34:10;;;;;;;16.35;14.57;;;;;;;22.42;59.86;100533.19;4937132;29;20098;-83
2021/09/25 09:36:40;;;;;;;18.00;15.88;;;;;;;22.07;60.67;100528.53;4925318;29;20634;-81
2021/09/25 09:39:18;;;;;;;20.48;15.35;;;;;;;22.19;60.52;100538.88;4916465;29;20551;-81
2021/09/25 09:41:58;;;;;;;19.05;17.08;;;;;;;22.64;59.18;100539.97;4918084;29;20402;-82
2021/09/25 09:44:29;;;;;;;23.02;16.35;;;;;;;22.50;58.80;100535.97;4916883;29;20422;-79
2021/09/25 09:46:59;;;;;;;22.00;17.92;;;;;;;22.49;59.41;100529.81;4917889;29;20051;-80
2021/09/25 09:49:29;;;;;;;33.72;17.38;;;;;;;22.58;58.39;100529.91;4917588;29;20138;-80
2021/09/25 09:52:31;;;;;;;18.75;16.70;;;;;;;22.51;58.33;100529.66;4917787;29;20127;-80
2021/09/25 09:54:58;;;;;;;21.95;17.42;;;;;;;22.58;57.52;100522.75;4910983;29;20056;-81
2021/09/25 09:57:25;;;;;;;17.90;15.38;;;;;;;22.39;57.67;100522.88;4917484;29;20036;-83
2021/09/25 09:59:51;;;;;;;18.83;16.30;;;;;;;22.87;56.59;100509.34;4917350;29;20044;-81
2021/09/25 10:02:19;;;;;;;18.10;13.57;;;;;;;22.65;56.54;100525.69;4917527;29;20045;-80
2021/09/25 10:04:46;;;;;;;17.83;14.40;;;;;;;22.87;55.38;100517.31;4917307;29;20048;-80
2021/09/25 10:07:13;;;;;;;15.70;14.10;;;;;;;22.69;55.76;100525.25;4916934;29;20052;-82
2021/09/25 10:09:41;;;;;;;19.88;14.63;;;;;;;22.67;55.30;100521.88;4917361;29;20072;-82
2021/09/25 10:12:11;;;;;;;20.92;15.70;;;;;;;23.14;54.57;100524.44;4917158;29;20380;-81
2021/09/25 10:14:41;;;;;;;17.52;15.55;;;;;;;23.31;53.94;100524.59;4916371;29;20415;-81
2021/09/25 10:17:11;;;;;;;22.40;14.52;;;;;;;23.45;53.84;100524.91;4917372;29;20039;-81
2021/09/25 10:19:40;;;;;;;19.30;15.32;;;;;;;23.09;54.63;100531.19;4917388;29;20407;-80
2021/09/25 10:22:20;;;;;;;22.05;17.08;;;;;;;22.94;55.14;100537.00;4916873;29;20044;-81
2021/09/25 10:24:57;;;;;;;19.95;16.20;;;;;;;23.48;53.36;100521.91;4917365;29;20048;-79
2021/09/25 10:27:36;;;;;;;31.02;17.67;;;;;;;23.81;52.69;100511.56;4916928;29;20455;-81
2021/09/25 10:30:07;;;;;;;18.27;15.65;;;;;;;23.21;53.76;100514.00;4917591;29;20048;-81
2021/09/25 10:32:41;;;;;;;20.50;15.95;;;;;;;23.19;54.48;100510.69;4916949;29;20111;-78
2021/09/25 10:35:08;;;;;;;31.60;20.50;;;;;;;23.84;52.41;100505.91;4917198;29;20079;-79
2021/09/25 10:38:02;;;;;;;25.63;15.15;;;;;;;23.33;53.27;100502.19;4917226;29;20068;-81
2021/09/25 10:40:49;;;;;;;22.13;14.97;;;;;;;23.63;52.54;100505.44;4918435;29;20040;-81
2021/09/25 10:43:16;;;;;;;17.08;14.20;;;;;;;23.60;52.60;100511.88;4919105;29;20064;-80
2021/09/25 10:45:43;;;;;;;17.63;14.88;;;;;;;24.13;51.40;100508.28;4919028;29;20053;-81
2021/09/25 10:48:19;;;;;;;15.65;13.18;;;;;;;23.52;53.97;100515.31;4917901;29;20108;-81
2021/09/25 10:50:49;;;;;;;13.48;12.20;;;;;;;23.95;52.46;100513.66;4918732;29;20128;-81
2021/09/25 10:53:17;;;;;;;20.20;14.60;;;;;;;23.51;53.00;100510.13;4919358;29;20118;-80
2021/09/25 10:55:46;;;;;;;16.90;13.90;;;;;;;23.57;53.05;100514.84;4917120;29;20487;-81
2021/09/25 10:58:25;;;;;;;15.07;13.63;;;;;;;24.02;51.98;100517.38;4917314;29;20052;-81
2021/09/25 11:01:24;;;;;;;15.77;13.60;;;;;;;23.80;52.01;100512.53;4917705;29;20092;-82
2021/09/25 11:03:56;;;;;;;14.70;12.93;;;;;;;23.57;52.41;100506.84;4917709;29;20072;-82
2021/09/25 11:06:41;;;;;;;14.27;12.77;;;;;;;24.04;51.07;100496.75;4917307;29;20063;-82
2021/09/25 11:09:14;;;;;;;13.63;11.50;;;;;;;23.79;50.92;100486.91;4917192;29;20096;-81
2021/09/25 11:11:46;;;;;;;17.13;11.38;;;;;;;24.32;49.35;100488.56;4917049;29;20044;-81
2021/09/25 11:14:42;;;;;;;13.65;11.32;;;;;;;23.98;50.01;100488.56;4916294;29;20040;-82
2021/09/25 11:17:11;;;;;;;14.88;10.80;;;;;;;23.88;49.25;100491.31;4912749;29;20444;-82